sensor_id;sensor_type;location;lat;lon;timestamp;P1;durP1;ratioP1;P2;durP2;ratioP2
42132;SDS011;70517;48.192;16.278;2024-01-30T00:00:43;3.97;;;2.60;;
42132;SDS011;70517;48.192;16.278;2024-01-30T00:03:43;3.00;;;2.53;;
42132;SDS011;70517;48.192;16.278;2024-01-30T00:06:44;3.77;;;2.30;;
42132;SDS011;70517;48.192;16.278;2024-01-30T00:09:46;4.47;;;2.83;;
42132;SDS011;70517;48.192;16.278;2024-01-30T00:12:46;3.75;;;2.63;;
42132;SDS011;70517;48.192;16.278;2024-01-30T00:15:47;4.50;;;2.87;;
42132;SDS011;70517;48.192;16.278;2024-01-30T00:18:47;6.40;;;2.97;;
42132;SDS011;70517;48.192;16.278;2024-01-30T00:21:48;3.70;;;2.70;;
42132;SDS011;70517;48.192;16.278;2024-01-30T00:24:48;3.27;;;2.43;;
42132;SDS011;70517;48.192;16.278;2024-01-30T00:27:48;3.17;;;2.73;;
42132;SDS011;70517;48.192;16.278;2024-01-30T00:30:49;3.53;;;2.50;;
42132;SDS011;70517;48.192;16.278;2024-01-30T00:33:49;4.10;;;2.63;;
42132;SDS011;70517;48.192;16.278;2024-01-30T00:36:49;3.13;;;2.43;;
42132;SDS011;70517;48.192;16.278;2024-01-30T00:39:49;3.67;;;2.57;;
42132;SDS011;70517;48.192;16.278;2024-01-30T00:42:50;5.30;;;2.83;;
42132;SDS011;70517;48.192;16.278;2024-01-30T00:45:50;4.57;;;2.73;;
42132;SDS011;70517;48.192;16.278;2024-01-30T00:51:52;3.10;;;2.15;;
42132;SDS011;70517;48.192;16.278;2024-01-30T00:54:52;4.43;;;2.63;;
42132;SDS011;70517;48.192;16.278;2024-01-30T00:57:53;3.93;;;2.40;;
42132;SDS011;70517;48.192;16.278;2024-01-30T01:00:53;3.93;;;2.43;;
42132;SDS011;70517;48.192;16.278;2024-01-30T01:03:53;3.43;;;2.33;;
42132;SDS011;70517;48.192;16.278;2024-01-30T01:06:53;4.57;;;2.57;;
42132;SDS011;70517;48.192;16.278;2024-01-30T01:09:54;3.87;;;2.73;;
42132;SDS011;70517;48.192;16.278;2024-01-30T01:12:54;4.37;;;2.97;;
42132;SDS011;70517;48.192;16.278;2024-01-30T01:15:54;4.00;;;2.53;;
42132;SDS011;70517;48.192;16.278;2024-01-30T01:18:55;3.47;;;2.30;;
42132;SDS011;70517;48.192;16.278;2024-01-30T01:21:55;3.93;;;2.70;;
42132;SDS011;70517;48.192;16.278;2024-01-30T01:24:55;4.30;;;2.60;;
42132;SDS011;70517;48.192;16.278;2024-01-30T01:27:56;3.00;;;2.60;;
42132;SDS011;70517;48.192;16.278;2024-01-30T01:30:57;3.58;;;2.45;;
42132;SDS011;70517;48.192;16.278;2024-01-30T01:34:01;4.72;;;2.90;;
42132;SDS011;70517;48.192;16.278;2024-01-30T01:37:01;4.07;;;2.77;;
42132;SDS011;70517;48.192;16.278;2024-01-30T01:40:01;4.33;;;2.73;;
42132;SDS011;70517;48.192;16.278;2024-01-30T01:43:02;3.83;;;2.60;;
42132;SDS011;70517;48.192;16.278;2024-01-30T01:46:03;5.35;;;2.75;;
42132;SDS011;70517;48.192;16.278;2024-01-30T01:49:04;3.23;;;2.50;;
42132;SDS011;70517;48.192;16.278;2024-01-30T01:55:05;3.67;;;2.25;;
42132;SDS011;70517;48.192;16.278;2024-01-30T01:58:06;2.90;;;2.00;;
42132;SDS011;70517;48.192;16.278;2024-01-30T02:01:08;3.47;;;2.53;;
42132;SDS011;70517;48.192;16.278;2024-01-30T02:04:09;3.93;;;2.90;;
42132;SDS011;70517;48.192;16.278;2024-01-30T02:07:09;4.27;;;2.87;;
42132;SDS011;70517;48.192;16.278;2024-01-30T02:10:09;4.53;;;2.70;;
42132;SDS011;70517;48.192;16.278;2024-01-30T02:13:10;4.43;;;2.60;;
42132;SDS011;70517;48.192;16.278;2024-01-30T02:16:10;3.27;;;2.70;;
42132;SDS011;70517;48.192;16.278;2024-01-30T02:19:10;4.10;;;2.57;;
42132;SDS011;70517;48.192;16.278;2024-01-30T02:22:11;3.83;;;2.40;;
42132;SDS011;70517;48.192;16.278;2024-01-30T02:25:13;4.72;;;2.53;;
42132;SDS011;70517;48.192;16.278;2024-01-30T02:28:13;3.43;;;2.57;;
42132;SDS011;70517;48.192;16.278;2024-01-30T02:31:13;5.63;;;2.80;;
42132;SDS011;70517;48.192;16.278;2024-01-30T02:34:14;4.20;;;2.40;;
42132;SDS011;70517;48.192;16.278;2024-01-30T02:37:14;3.97;;;2.57;;
42132;SDS011;70517;48.192;16.278;2024-01-30T02:40:15;4.37;;;2.67;;
42132;SDS011;70517;48.192;16.278;2024-01-30T02:43:15;5.83;;;2.80;;
42132;SDS011;70517;48.192;16.278;2024-01-30T02:46:16;3.70;;;2.83;;
42132;SDS011;70517;48.192;16.278;2024-01-30T02:49:16;4.63;;;2.73;;
42132;SDS011;70517;48.192;16.278;2024-01-30T02:52:16;4.43;;;3.00;;
42132;SDS011;70517;48.192;16.278;2024-01-30T02:55:17;3.53;;;2.73;;
42132;SDS011;70517;48.192;16.278;2024-01-30T02:58:20;4.53;;;3.00;;
42132;SDS011;70517;48.192;16.278;2024-01-30T03:01:20;6.67;;;3.37;;
42132;SDS011;70517;48.192;16.278;2024-01-30T03:04:21;3.77;;;2.77;;
42132;SDS011;70517;48.192;16.278;2024-01-30T03:07:21;4.67;;;3.37;;
42132;SDS011;70517;48.192;16.278;2024-01-30T03:10:21;5.93;;;3.33;;
42132;SDS011;70517;48.192;16.278;2024-01-30T03:13:22;4.63;;;3.07;;
42132;SDS011;70517;48.192;16.278;2024-01-30T03:16:25;4.90;;;2.72;;
42132;SDS011;70517;48.192;16.278;2024-01-30T03:19:25;3.33;;;2.80;;
42132;SDS011;70517;48.192;16.278;2024-01-30T03:22:25;4.33;;;2.70;;
42132;SDS011;70517;48.192;16.278;2024-01-30T03:25:26;4.33;;;2.87;;
42132;SDS011;70517;48.192;16.278;2024-01-30T03:28:26;4.20;;;2.83;;
42132;SDS011;70517;48.192;16.278;2024-01-30T03:31:27;5.67;;;2.67;;
42132;SDS011;70517;48.192;16.278;2024-01-30T03:34:27;4.00;;;2.57;;
42132;SDS011;70517;48.192;16.278;2024-01-30T03:37:27;3.30;;;2.77;;
42132;SDS011;70517;48.192;16.278;2024-01-30T03:40:27;5.70;;;2.73;;
42132;SDS011;70517;48.192;16.278;2024-01-30T03:43:28;5.20;;;3.00;;
42132;SDS011;70517;48.192;16.278;2024-01-30T03:46:28;5.27;;;2.90;;
42132;SDS011;70517;48.192;16.278;2024-01-30T03:49:28;3.67;;;2.73;;
42132;SDS011;70517;48.192;16.278;2024-01-30T03:52:29;2.90;;;2.57;;
42132;SDS011;70517;48.192;16.278;2024-01-30T03:55:29;5.70;;;2.70;;
42132;SDS011;70517;48.192;16.278;2024-01-30T03:58:29;6.30;;;2.67;;
42132;SDS011;70517;48.192;16.278;2024-01-30T04:01:30;3.80;;;2.73;;
42132;SDS011;70517;48.192;16.278;2024-01-30T04:04:30;3.37;;;2.47;;
42132;SDS011;70517;48.192;16.278;2024-01-30T04:07:30;4.37;;;2.47;;
42132;SDS011;70517;48.192;16.278;2024-01-30T04:10:31;3.27;;;2.63;;
42132;SDS011;70517;48.192;16.278;2024-01-30T04:13:31;4.57;;;2.93;;
42132;SDS011;70517;48.192;16.278;2024-01-30T04:16:32;5.87;;;3.10;;
42132;SDS011;70517;48.192;16.278;2024-01-30T04:19:32;3.63;;;2.87;;
42132;SDS011;70517;48.192;16.278;2024-01-30T04:22:32;3.83;;;2.77;;
42132;SDS011;70517;48.192;16.278;2024-01-30T04:25:33;5.00;;;3.10;;
42132;SDS011;70517;48.192;16.278;2024-01-30T04:28:33;4.83;;;2.73;;
42132;SDS011;70517;48.192;16.278;2024-01-30T04:31:35;3.97;;;2.80;;
42132;SDS011;70517;48.192;16.278;2024-01-30T04:34:36;3.75;;;2.67;;
42132;SDS011;70517;48.192;16.278;2024-01-30T04:37:36;5.03;;;3.13;;
42132;SDS011;70517;48.192;16.278;2024-01-30T04:40:37;5.93;;;3.10;;
42132;SDS011;70517;48.192;16.278;2024-01-30T04:43:37;4.03;;;2.73;;
42132;SDS011;70517;48.192;16.278;2024-01-30T04:46:38;4.65;;;2.83;;
42132;SDS011;70517;48.192;16.278;2024-01-30T04:49:38;4.30;;;3.00;;
42132;SDS011;70517;48.192;16.278;2024-01-30T04:52:39;4.43;;;2.72;;
42132;SDS011;70517;48.192;16.278;2024-01-30T04:55:39;3.63;;;2.80;;
42132;SDS011;70517;48.192;16.278;2024-01-30T04:58:40;4.40;;;2.93;;
42132;SDS011;70517;48.192;16.278;2024-01-30T05:01:40;4.50;;;2.73;;
42132;SDS011;70517;48.192;16.278;2024-01-30T05:04:40;4.47;;;2.70;;
42132;SDS011;70517;48.192;16.278;2024-01-30T05:07:41;4.40;;;2.85;;
42132;SDS011;70517;48.192;16.278;2024-01-30T05:10:41;4.13;;;2.87;;
42132;SDS011;70517;48.192;16.278;2024-01-30T05:13:42;3.90;;;2.83;;
42132;SDS011;70517;48.192;16.278;2024-01-30T05:16:42;6.17;;;3.30;;
42132;SDS011;70517;48.192;16.278;2024-01-30T05:19:46;4.22;;;3.05;;
42132;SDS011;70517;48.192;16.278;2024-01-30T05:22:46;4.40;;;3.37;;
42132;SDS011;70517;48.192;16.278;2024-01-30T05:25:47;5.47;;;3.17;;
42132;SDS011;70517;48.192;16.278;2024-01-30T05:28:47;4.60;;;3.30;;
42132;SDS011;70517;48.192;16.278;2024-01-30T05:31:48;4.00;;;2.90;;
42132;SDS011;70517;48.192;16.278;2024-01-30T05:34:48;6.10;;;3.50;;
42132;SDS011;70517;48.192;16.278;2024-01-30T05:40:50;3.22;;;2.38;;
42132;SDS011;70517;48.192;16.278;2024-01-30T05:43:50;4.43;;;2.80;;
42132;SDS011;70517;48.192;16.278;2024-01-30T05:46:51;3.60;;;3.07;;
42132;SDS011;70517;48.192;16.278;2024-01-30T05:49:51;4.53;;;3.23;;
42132;SDS011;70517;48.192;16.278;2024-01-30T05:52:51;4.30;;;2.73;;
42132;SDS011;70517;48.192;16.278;2024-01-30T05:55:52;4.87;;;3.13;;
42132;SDS011;70517;48.192;16.278;2024-01-30T05:58:52;6.23;;;3.30;;
42132;SDS011;70517;48.192;16.278;2024-01-30T06:01:52;5.37;;;3.30;;
42132;SDS011;70517;48.192;16.278;2024-01-30T06:04:53;6.10;;;3.37;;
42132;SDS011;70517;48.192;16.278;2024-01-30T06:07:53;7.73;;;3.40;;
42132;SDS011;70517;48.192;16.278;2024-01-30T06:10:53;4.23;;;2.87;;
42132;SDS011;70517;48.192;16.278;2024-01-30T06:13:54;5.63;;;3.37;;
42132;SDS011;70517;48.192;16.278;2024-01-30T06:16:54;4.20;;;3.20;;
42132;SDS011;70517;48.192;16.278;2024-01-30T06:19:54;5.53;;;2.97;;
42132;SDS011;70517;48.192;16.278;2024-01-30T06:22:55;5.33;;;3.17;;
42132;SDS011;70517;48.192;16.278;2024-01-30T06:25:55;5.37;;;3.53;;
42132;SDS011;70517;48.192;16.278;2024-01-30T06:28:55;5.57;;;3.33;;
42132;SDS011;70517;48.192;16.278;2024-01-30T06:31:55;3.57;;;2.73;;
42132;SDS011;70517;48.192;16.278;2024-01-30T06:34:56;4.30;;;3.10;;
42132;SDS011;70517;48.192;16.278;2024-01-30T06:37:56;4.87;;;3.50;;
42132;SDS011;70517;48.192;16.278;2024-01-30T06:40:56;6.20;;;3.53;;
42132;SDS011;70517;48.192;16.278;2024-01-30T06:43:57;5.57;;;3.47;;
42132;SDS011;70517;48.192;16.278;2024-01-30T06:46:57;6.43;;;3.40;;
42132;SDS011;70517;48.192;16.278;2024-01-30T06:49:57;5.13;;;3.13;;
42132;SDS011;70517;48.192;16.278;2024-01-30T06:52:58;4.77;;;3.03;;
42132;SDS011;70517;48.192;16.278;2024-01-30T06:55:58;7.00;;;3.27;;
42132;SDS011;70517;48.192;16.278;2024-01-30T06:58:58;5.50;;;3.70;;
42132;SDS011;70517;48.192;16.278;2024-01-30T07:02:01;5.10;;;3.47;;
42132;SDS011;70517;48.192;16.278;2024-01-30T07:05:01;4.95;;;3.50;;
42132;SDS011;70517;48.192;16.278;2024-01-30T07:08:01;4.53;;;3.30;;
42132;SDS011;70517;48.192;16.278;2024-01-30T07:11:02;5.13;;;3.40;;
42132;SDS011;70517;48.192;16.278;2024-01-30T07:14:02;4.90;;;3.00;;
42132;SDS011;70517;48.192;16.278;2024-01-30T07:17:05;5.07;;;3.63;;
42132;SDS011;70517;48.192;16.278;2024-01-30T07:20:06;4.47;;;3.10;;
42132;SDS011;70517;48.192;16.278;2024-01-30T07:23:07;4.70;;;3.33;;
42132;SDS011;70517;48.192;16.278;2024-01-30T07:26:08;6.30;;;3.33;;
42132;SDS011;70517;48.192;16.278;2024-01-30T07:29:08;3.80;;;2.77;;
42132;SDS011;70517;48.192;16.278;2024-01-30T07:32:08;4.30;;;3.27;;
42132;SDS011;70517;48.192;16.278;2024-01-30T07:35:09;5.83;;;3.27;;
42132;SDS011;70517;48.192;16.278;2024-01-30T07:38:09;6.20;;;3.33;;
42132;SDS011;70517;48.192;16.278;2024-01-30T07:41:09;4.10;;;3.27;;
42132;SDS011;70517;48.192;16.278;2024-01-30T07:44:11;4.75;;;3.08;;
42132;SDS011;70517;48.192;16.278;2024-01-30T07:47:12;4.13;;;3.35;;
42132;SDS011;70517;48.192;16.278;2024-01-30T07:50:12;6.20;;;3.63;;
42132;SDS011;70517;48.192;16.278;2024-01-30T07:53:13;6.03;;;3.13;;
42132;SDS011;70517;48.192;16.278;2024-01-30T07:56:13;5.70;;;3.47;;
42132;SDS011;70517;48.192;16.278;2024-01-30T07:59:13;6.33;;;3.60;;
42132;SDS011;70517;48.192;16.278;2024-01-30T08:02:14;4.53;;;3.17;;
42132;SDS011;70517;48.192;16.278;2024-01-30T08:05:19;5.03;;;3.28;;
42132;SDS011;70517;48.192;16.278;2024-01-30T08:08:22;4.85;;;3.63;;
42132;SDS011;70517;48.192;16.278;2024-01-30T08:11:22;4.87;;;3.17;;
42132;SDS011;70517;48.192;16.278;2024-01-30T08:14:29;5.20;;;3.38;;
42132;SDS011;70517;48.192;16.278;2024-01-30T08:17:31;4.07;;;3.45;;
42132;SDS011;70517;48.192;16.278;2024-01-30T08:20:35;4.32;;;3.25;;
42132;SDS011;70517;48.192;16.278;2024-01-30T08:23:46;4.28;;;3.05;;
42132;SDS011;70517;48.192;16.278;2024-01-30T08:27:12;7.05;;;3.30;;
42132;SDS011;70517;48.192;16.278;2024-01-30T08:33:12;5.15;;;2.88;;
42132;SDS011;70517;48.192;16.278;2024-01-30T08:36:13;6.90;;;3.03;;
42132;SDS011;70517;48.192;16.278;2024-01-30T08:39:13;4.20;;;2.87;;
42132;SDS011;70517;48.192;16.278;2024-01-30T08:42:14;5.68;;;3.20;;
42132;SDS011;70517;48.192;16.278;2024-01-30T08:45:15;5.53;;;3.37;;
42132;SDS011;70517;48.192;16.278;2024-01-30T08:48:15;4.93;;;3.27;;
42132;SDS011;70517;48.192;16.278;2024-01-30T08:51:15;4.83;;;3.03;;
42132;SDS011;70517;48.192;16.278;2024-01-30T08:54:16;4.07;;;3.20;;
42132;SDS011;70517;48.192;16.278;2024-01-30T08:57:16;4.90;;;3.53;;
42132;SDS011;70517;48.192;16.278;2024-01-30T09:00:16;5.07;;;3.23;;
42132;SDS011;70517;48.192;16.278;2024-01-30T09:03:17;4.30;;;3.23;;
42132;SDS011;70517;48.192;16.278;2024-01-30T09:06:17;4.00;;;3.13;;
42132;SDS011;70517;48.192;16.278;2024-01-30T09:09:17;4.67;;;3.23;;
42132;SDS011;70517;48.192;16.278;2024-01-30T09:12:18;3.87;;;3.03;;
42132;SDS011;70517;48.192;16.278;2024-01-30T09:15:18;3.83;;;2.63;;
42132;SDS011;70517;48.192;16.278;2024-01-30T09:18:19;3.87;;;3.00;;
42132;SDS011;70517;48.192;16.278;2024-01-30T09:21:19;5.57;;;3.47;;
42132;SDS011;70517;48.192;16.278;2024-01-30T09:24:19;4.93;;;3.27;;
42132;SDS011;70517;48.192;16.278;2024-01-30T09:27:20;6.47;;;3.13;;
42132;SDS011;70517;48.192;16.278;2024-01-30T09:30:20;4.60;;;3.37;;
42132;SDS011;70517;48.192;16.278;2024-01-30T09:33:20;3.87;;;3.10;;
42132;SDS011;70517;48.192;16.278;2024-01-30T09:36:20;4.47;;;3.10;;
42132;SDS011;70517;48.192;16.278;2024-01-30T09:39:21;6.30;;;3.13;;
42132;SDS011;70517;48.192;16.278;2024-01-30T09:42:28;4.47;;;3.05;;
42132;SDS011;70517;48.192;16.278;2024-01-30T09:45:32;4.90;;;3.67;;
42132;SDS011;70517;48.192;16.278;2024-01-30T09:48:32;4.10;;;2.83;;
42132;SDS011;70517;48.192;16.278;2024-01-30T09:51:33;4.55;;;3.38;;
42132;SDS011;70517;48.192;16.278;2024-01-30T09:54:34;5.00;;;3.30;;
42132;SDS011;70517;48.192;16.278;2024-01-30T09:57:35;4.97;;;3.20;;
42132;SDS011;70517;48.192;16.278;2024-01-30T10:00:35;3.97;;;3.10;;
42132;SDS011;70517;48.192;16.278;2024-01-30T10:03:36;3.73;;;3.20;;
42132;SDS011;70517;48.192;16.278;2024-01-30T10:06:37;4.43;;;3.40;;
42132;SDS011;70517;48.192;16.278;2024-01-30T10:09:38;5.10;;;3.10;;
42132;SDS011;70517;48.192;16.278;2024-01-30T10:12:40;4.47;;;2.90;;
42132;SDS011;70517;48.192;16.278;2024-01-30T10:18:47;3.80;;;2.63;;
42132;SDS011;70517;48.192;16.278;2024-01-30T10:21:48;3.88;;;2.65;;
42132;SDS011;70517;48.192;16.278;2024-01-30T10:24:49;3.33;;;2.43;;
42132;SDS011;70517;48.192;16.278;2024-01-30T10:27:54;7.07;;;3.58;;
42132;SDS011;70517;48.192;16.278;2024-01-30T10:30:59;4.75;;;3.03;;
42132;SDS011;70517;48.192;16.278;2024-01-30T10:34:01;4.40;;;3.13;;
42132;SDS011;70517;48.192;16.278;2024-01-30T10:37:08;4.10;;;3.27;;
42132;SDS011;70517;48.192;16.278;2024-01-30T10:40:17;3.92;;;3.00;;
42132;SDS011;70517;48.192;16.278;2024-01-30T10:43:26;5.15;;;3.47;;
42132;SDS011;70517;48.192;16.278;2024-01-30T10:46:32;5.32;;;3.05;;
42132;SDS011;70517;48.192;16.278;2024-01-30T10:49:54;4.55;;;3.28;;
42132;SDS011;70517;48.192;16.278;2024-01-30T10:52:56;3.50;;;2.40;;
42132;SDS011;70517;48.192;16.278;2024-01-30T10:55:58;4.25;;;2.88;;
42132;SDS011;70517;48.192;16.278;2024-01-30T10:58:59;4.10;;;3.10;;
42132;SDS011;70517;48.192;16.278;2024-01-30T11:01:59;3.93;;;3.00;;
42132;SDS011;70517;48.192;16.278;2024-01-30T11:05:04;4.37;;;3.07;;
42132;SDS011;70517;48.192;16.278;2024-01-30T11:08:13;3.33;;;2.80;;
42132;SDS011;70517;48.192;16.278;2024-01-30T11:11:14;4.30;;;2.97;;
42132;SDS011;70517;48.192;16.278;2024-01-30T11:14:16;4.75;;;3.08;;
42132;SDS011;70517;48.192;16.278;2024-01-30T11:17:16;4.30;;;2.80;;
42132;SDS011;70517;48.192;16.278;2024-01-30T11:23:21;3.53;;;2.88;;
42132;SDS011;70517;48.192;16.278;2024-01-30T11:26:24;4.60;;;3.05;;
42132;SDS011;70517;48.192;16.278;2024-01-30T11:29:27;4.07;;;2.92;;
42132;SDS011;70517;48.192;16.278;2024-01-30T11:32:28;2.93;;;2.63;;
42132;SDS011;70517;48.192;16.278;2024-01-30T11:35:28;3.57;;;2.87;;
42132;SDS011;70517;48.192;16.278;2024-01-30T11:38:29;4.82;;;3.17;;
42132;SDS011;70517;48.192;16.278;2024-01-30T11:41:29;4.80;;;3.20;;
42132;SDS011;70517;48.192;16.278;2024-01-30T11:44:30;3.37;;;2.90;;
42132;SDS011;70517;48.192;16.278;2024-01-30T11:47:30;4.23;;;2.60;;
42132;SDS011;70517;48.192;16.278;2024-01-30T11:50:31;4.87;;;3.00;;
42132;SDS011;70517;48.192;16.278;2024-01-30T11:53:31;3.77;;;2.87;;
42132;SDS011;70517;48.192;16.278;2024-01-30T11:56:31;3.43;;;2.70;;
42132;SDS011;70517;48.192;16.278;2024-01-30T11:59:32;4.93;;;2.83;;
42132;SDS011;70517;48.192;16.278;2024-01-30T12:02:32;4.33;;;2.97;;
42132;SDS011;70517;48.192;16.278;2024-01-30T12:05:32;5.53;;;2.57;;
42132;SDS011;70517;48.192;16.278;2024-01-30T12:08:33;3.93;;;2.93;;
42132;SDS011;70517;48.192;16.278;2024-01-30T12:11:42;3.70;;;2.73;;
42132;SDS011;70517;48.192;16.278;2024-01-30T12:14:39;4.60;;;2.83;;
42132;SDS011;70517;48.192;16.278;2024-01-30T12:17:39;4.03;;;2.97;;
42132;SDS011;70517;48.192;16.278;2024-01-30T12:20:40;4.40;;;2.90;;
42132;SDS011;70517;48.192;16.278;2024-01-30T12:23:40;3.50;;;2.97;;
42132;SDS011;70517;48.192;16.278;2024-01-30T12:26:41;3.73;;;2.80;;
42132;SDS011;70517;48.192;16.278;2024-01-30T12:29:43;5.40;;;2.95;;
42132;SDS011;70517;48.192;16.278;2024-01-30T12:32:44;4.82;;;2.72;;
42132;SDS011;70517;48.192;16.278;2024-01-30T12:35:45;4.07;;;2.70;;
42132;SDS011;70517;48.192;16.278;2024-01-30T12:38:46;3.40;;;2.47;;
42132;SDS011;70517;48.192;16.278;2024-01-30T12:41:46;4.27;;;3.13;;
42132;SDS011;70517;48.192;16.278;2024-01-30T12:44:46;3.60;;;3.00;;
42132;SDS011;70517;48.192;16.278;2024-01-30T12:47:47;3.27;;;2.67;;
42132;SDS011;70517;48.192;16.278;2024-01-30T12:50:47;4.73;;;3.33;;
42132;SDS011;70517;48.192;16.278;2024-01-30T12:53:47;5.43;;;3.40;;
42132;SDS011;70517;48.192;16.278;2024-01-30T12:56:48;4.53;;;2.87;;
42132;SDS011;70517;48.192;16.278;2024-01-30T12:59:48;4.03;;;2.87;;
42132;SDS011;70517;48.192;16.278;2024-01-30T13:02:49;4.17;;;2.83;;
42132;SDS011;70517;48.192;16.278;2024-01-30T13:05:49;6.03;;;2.77;;
42132;SDS011;70517;48.192;16.278;2024-01-30T13:08:49;3.97;;;3.10;;
42132;SDS011;70517;48.192;16.278;2024-01-30T13:11:50;4.47;;;2.93;;
42132;SDS011;70517;48.192;16.278;2024-01-30T13:14:51;3.90;;;2.97;;
42132;SDS011;70517;48.192;16.278;2024-01-30T13:17:51;4.40;;;2.97;;
42132;SDS011;70517;48.192;16.278;2024-01-30T13:20:54;3.47;;;2.85;;
42132;SDS011;70517;48.192;16.278;2024-01-30T13:23:54;3.97;;;3.07;;
42132;SDS011;70517;48.192;16.278;2024-01-30T13:26:54;3.97;;;3.17;;
42132;SDS011;70517;48.192;16.278;2024-01-30T13:29:55;4.17;;;2.73;;
42132;SDS011;70517;48.192;16.278;2024-01-30T13:32:55;3.40;;;2.60;;
42132;SDS011;70517;48.192;16.278;2024-01-30T13:35:55;4.07;;;2.87;;
42132;SDS011;70517;48.192;16.278;2024-01-30T13:38:55;5.03;;;3.03;;
42132;SDS011;70517;48.192;16.278;2024-01-30T13:41:56;4.23;;;2.63;;
42132;SDS011;70517;48.192;16.278;2024-01-30T13:44:56;4.67;;;2.63;;
42132;SDS011;70517;48.192;16.278;2024-01-30T13:47:56;4.40;;;3.00;;
42132;SDS011;70517;48.192;16.278;2024-01-30T13:50:57;3.53;;;2.73;;
42132;SDS011;70517;48.192;16.278;2024-01-30T13:53:57;4.57;;;2.53;;
42132;SDS011;70517;48.192;16.278;2024-01-30T13:56:58;2.93;;;2.60;;
42132;SDS011;70517;48.192;16.278;2024-01-30T13:59:58;3.60;;;2.77;;
42132;SDS011;70517;48.192;16.278;2024-01-30T14:02:58;3.87;;;2.90;;
42132;SDS011;70517;48.192;16.278;2024-01-30T14:05:59;4.57;;;2.97;;
42132;SDS011;70517;48.192;16.278;2024-01-30T14:08:59;3.63;;;2.90;;
42132;SDS011;70517;48.192;16.278;2024-01-30T14:11:59;3.37;;;2.77;;
42132;SDS011;70517;48.192;16.278;2024-01-30T14:15:00;3.53;;;2.57;;
42132;SDS011;70517;48.192;16.278;2024-01-30T14:18:00;2.60;;;2.27;;
42132;SDS011;70517;48.192;16.278;2024-01-30T14:21:00;3.80;;;2.83;;
42132;SDS011;70517;48.192;16.278;2024-01-30T14:24:01;3.70;;;3.00;;
42132;SDS011;70517;48.192;16.278;2024-01-30T14:27:01;4.43;;;2.87;;
42132;SDS011;70517;48.192;16.278;2024-01-30T14:30:01;3.37;;;2.63;;
42132;SDS011;70517;48.192;16.278;2024-01-30T14:33:03;5.03;;;2.70;;
42132;SDS011;70517;48.192;16.278;2024-01-30T14:36:03;3.93;;;2.80;;
42132;SDS011;70517;48.192;16.278;2024-01-30T14:39:03;4.67;;;2.60;;
42132;SDS011;70517;48.192;16.278;2024-01-30T14:42:04;3.27;;;2.57;;
42132;SDS011;70517;48.192;16.278;2024-01-30T14:45:05;3.43;;;2.43;;
42132;SDS011;70517;48.192;16.278;2024-01-30T14:48:05;3.67;;;2.40;;
42132;SDS011;70517;48.192;16.278;2024-01-30T14:51:06;4.13;;;2.63;;
42132;SDS011;70517;48.192;16.278;2024-01-30T14:54:07;3.03;;;2.13;;
42132;SDS011;70517;48.192;16.278;2024-01-30T14:57:07;4.90;;;2.50;;
42132;SDS011;70517;48.192;16.278;2024-01-30T15:03:09;3.87;;;2.27;;
42132;SDS011;70517;48.192;16.278;2024-01-30T15:06:09;3.47;;;2.20;;
42132;SDS011;70517;48.192;16.278;2024-01-30T15:09:10;3.73;;;2.53;;
42132;SDS011;70517;48.192;16.278;2024-01-30T15:12:10;3.10;;;2.50;;
42132;SDS011;70517;48.192;16.278;2024-01-30T15:15:11;4.60;;;2.63;;
42132;SDS011;70517;48.192;16.278;2024-01-30T15:18:11;3.00;;;2.37;;
42132;SDS011;70517;48.192;16.278;2024-01-30T15:21:11;4.30;;;2.77;;
42132;SDS011;70517;48.192;16.278;2024-01-30T15:24:11;3.20;;;2.40;;
42132;SDS011;70517;48.192;16.278;2024-01-30T15:27:15;3.42;;;2.50;;
42132;SDS011;70517;48.192;16.278;2024-01-30T15:30:15;3.60;;;2.73;;
42132;SDS011;70517;48.192;16.278;2024-01-30T15:33:15;3.67;;;2.77;;
42132;SDS011;70517;48.192;16.278;2024-01-30T15:36:15;6.13;;;2.47;;
42132;SDS011;70517;48.192;16.278;2024-01-30T15:39:16;3.80;;;2.40;;
42132;SDS011;70517;48.192;16.278;2024-01-30T15:42:17;4.30;;;2.53;;
42132;SDS011;70517;48.192;16.278;2024-01-30T15:45:17;2.80;;;2.43;;
42132;SDS011;70517;48.192;16.278;2024-01-30T15:48:20;2.60;;;2.33;;
42132;SDS011;70517;48.192;16.278;2024-01-30T15:51:21;3.15;;;2.25;;
42132;SDS011;70517;48.192;16.278;2024-01-30T15:54:21;3.97;;;2.30;;
42132;SDS011;70517;48.192;16.278;2024-01-30T15:57:22;2.88;;;2.35;;
42132;SDS011;70517;48.192;16.278;2024-01-30T16:00:22;3.47;;;2.40;;
42132;SDS011;70517;48.192;16.278;2024-01-30T16:03:23;3.60;;;2.60;;
42132;SDS011;70517;48.192;16.278;2024-01-30T16:06:23;3.00;;;2.50;;
42132;SDS011;70517;48.192;16.278;2024-01-30T16:09:23;2.87;;;2.57;;
42132;SDS011;70517;48.192;16.278;2024-01-30T16:12:23;4.10;;;2.60;;
42132;SDS011;70517;48.192;16.278;2024-01-30T16:15:24;4.57;;;2.57;;
42132;SDS011;70517;48.192;16.278;2024-01-30T16:18:25;2.87;;;2.43;;
42132;SDS011;70517;48.192;16.278;2024-01-30T16:21:26;3.00;;;2.33;;
42132;SDS011;70517;48.192;16.278;2024-01-30T16:24:27;4.27;;;2.30;;
42132;SDS011;70517;48.192;16.278;2024-01-30T16:27:27;4.53;;;2.77;;
42132;SDS011;70517;48.192;16.278;2024-01-30T16:30:28;4.35;;;2.88;;
42132;SDS011;70517;48.192;16.278;2024-01-30T16:33:31;3.50;;;2.70;;
42132;SDS011;70517;48.192;16.278;2024-01-30T16:36:32;4.43;;;2.70;;
42132;SDS011;70517;48.192;16.278;2024-01-30T16:39:32;5.97;;;2.50;;
42132;SDS011;70517;48.192;16.278;2024-01-30T16:42:32;3.60;;;2.63;;
42132;SDS011;70517;48.192;16.278;2024-01-30T16:45:33;5.20;;;2.60;;
42132;SDS011;70517;48.192;16.278;2024-01-30T16:48:33;4.63;;;2.87;;
42132;SDS011;70517;48.192;16.278;2024-01-30T16:51:33;4.80;;;2.77;;
42132;SDS011;70517;48.192;16.278;2024-01-30T16:54:34;4.13;;;2.90;;
42132;SDS011;70517;48.192;16.278;2024-01-30T16:57:34;4.00;;;2.53;;
42132;SDS011;70517;48.192;16.278;2024-01-30T17:00:34;5.00;;;2.77;;
42132;SDS011;70517;48.192;16.278;2024-01-30T17:03:35;4.80;;;2.97;;
42132;SDS011;70517;48.192;16.278;2024-01-30T17:06:35;4.57;;;2.73;;
42132;SDS011;70517;48.192;16.278;2024-01-30T17:09:35;4.40;;;2.60;;
42132;SDS011;70517;48.192;16.278;2024-01-30T17:12:35;4.13;;;2.60;;
42132;SDS011;70517;48.192;16.278;2024-01-30T17:15:36;4.30;;;2.70;;
42132;SDS011;70517;48.192;16.278;2024-01-30T17:18:36;3.80;;;2.27;;
42132;SDS011;70517;48.192;16.278;2024-01-30T17:21:37;3.90;;;2.93;;
42132;SDS011;70517;48.192;16.278;2024-01-30T17:24:37;4.83;;;2.83;;
42132;SDS011;70517;48.192;16.278;2024-01-30T17:27:37;3.60;;;2.40;;
42132;SDS011;70517;48.192;16.278;2024-01-30T17:30:38;3.37;;;2.37;;
42132;SDS011;70517;48.192;16.278;2024-01-30T17:33:38;3.97;;;2.73;;
42132;SDS011;70517;48.192;16.278;2024-01-30T17:36:38;5.23;;;2.83;;
42132;SDS011;70517;48.192;16.278;2024-01-30T17:39:39;3.37;;;2.60;;
42132;SDS011;70517;48.192;16.278;2024-01-30T17:42:39;3.17;;;2.57;;
42132;SDS011;70517;48.192;16.278;2024-01-30T17:45:39;3.73;;;2.20;;
42132;SDS011;70517;48.192;16.278;2024-01-30T17:48:40;4.30;;;2.70;;
42132;SDS011;70517;48.192;16.278;2024-01-30T17:51:40;4.97;;;2.37;;
42132;SDS011;70517;48.192;16.278;2024-01-30T17:54:41;3.92;;;2.63;;
42132;SDS011;70517;48.192;16.278;2024-01-30T17:57:41;4.23;;;2.73;;
42132;SDS011;70517;48.192;16.278;2024-01-30T18:00:42;3.78;;;2.60;;
42132;SDS011;70517;48.192;16.278;2024-01-30T18:03:43;3.87;;;2.50;;
42132;SDS011;70517;48.192;16.278;2024-01-30T18:06:48;2.70;;;2.40;;
42132;SDS011;70517;48.192;16.278;2024-01-30T18:09:48;3.95;;;2.97;;
42132;SDS011;70517;48.192;16.278;2024-01-30T18:12:48;4.10;;;2.93;;